Weather at Aerodromo da Amareleja [CLOSED]

Public forecast

Using degrees Celsius for public forecast. Weather courtesy of forecast.io.

Closest aviation weather report (METAR) to Aerodromo da Amareleja

Closest report is Beja Airport / Airbase, 34.8 nm (64.5 km) W.

2024/07/25 09:50 (retrieved 20 minutes ago)

LPBJ 250950Z 31007KT 280V340 9999 FEW008 SCT015 21/17 Q1013

Closest aviation forecast (TAF) to Aerodromo da Amareleja

Closest forecast is Beja Airport / Airbase, 34.8 nm (64.5 km) W.

2024/07/25 06:18 (retrieved 4 hours ago)

TAF LPBJ 250508Z 2506/2606 27008KT 4000 BCFG BKN005 PROB30 2506/2508 0800 FG BKN002 BECMG 2507/2510 9999 NSW SCT010 BECMG 2511/2514 33010KT CAVOK BECMG 2523/2601 30005KT